Latest Coastal Weather Observations for Groote Eylandt Airport

IDD60701

Issued at 8:15 am CST Tuesday 25 November 2014 (issued every 10 minutes, with the page automatically refreshed every 10 minutes)

About coastal observations | Map of coastal stations | Coastal observations for NT | Marine services | Other Formats
Station Details ID: 014518 Name: GROOTE EYLANDT AIRPORT Lat: -13.97 Lon: 136.46 Height: 13.7 m
Data from the previous 72 hours. | See also: Recent months at Groote Eylandt Airport
Date/Time
CST
Temp

°C
Wind Pressure Rain
since 9am
mm
Weather Cloud Vis
km
Sea
Height
m
Swell
Dir
 
Speed
knots
Gust
knots
hPa Trend Height
m
Period
s
Dir
25/08:00am 29.1 NW 8 10 1009.7 - 0.0 - Partly cloudy - - - - -
25/07:30am 28.6 N 5 7 1009.6 - 0.0 - Partly cloudy - - - - -
25/07:00am 27.5 E 4 6 1009.5 - 0.0 - Partly cloudy - - - - -
25/06:30am 26.3 CALM 0 0 1009.2 - 0.0 - Partly cloudy - - - - -
25/06:00am 25.8 NE 1 3 1008.6 - 0.0 - Cloudy - - - - -
25/05:30am 26.5 NNE 2 4 1008.0 - 0.0 - Partly cloudy - - - - -
25/05:00am 26.7 N 1 3 1008.1 - 0.0 - - - - - - -
25/04:30am 27.2 N 2 4 1008.1 - 0.0 - Partly cloudy - - - - -
25/04:00am 27.3 N 4 5 1007.8 - 0.0 - Partly cloudy - - - - -
25/03:30am 27.3 N 4 6 1007.5 - 0.0 - Partly cloudy - - - - -
25/03:00am 27.3 NNW 4 5 1007.7 - 0.0 - Mostly clear - - - - -
25/02:30am 27.4 NW 5 6 1008.1 - 0.0 - - - - - - -
25/02:00am 27.5 NNW 5 6 1008.3 - 0.0 - - - - - - -
25/01:30am 27.4 N 1 3 1008.5 - 0.0 - - - - - - -
25/01:00am 27.6 NE 3 5 1008.8 - 0.0 - - 10 - - - -
25/12:30am 27.6 NE 5 6 1009.0 - 0.0 - - 10 - - - -
25/12:00am 27.9 NE 5 7 1009.6 - 0.0 - - 10 - - - -
 
Date/Time
CST
Temp

°C
Wind Pressure Rain
since 9am
mm
Weather Cloud Vis
km
Sea
Height
m
Swell
Dir
 
Speed
knots
Gust
knots
hPa Trend Height
m
Period
s
Dir
24/11:30pm 28.1 NE 7 9 1009.8 - 0.0 - - 10 - - - -
24/11:00pm 28.1 NE 6 9 1009.9 - 0.0 - - 10 - - - -
24/10:30pm 28.2 NE 6 9 1009.8 - 0.0 - - 10 - - - -
24/10:00pm 28.3 NNE 7 11 1009.3 - 0.0 - - 10 - - - -
24/09:30pm 28.4 NE 6 9 1009.1 - 0.0 - - 10 - - - -
24/09:00pm 28.5 ENE 7 9 1008.7 - 0.0 - - 10 - - - -
24/08:30pm 28.8 NE 8 11 1008.6 - 0.0 - - 10 - - - -
24/08:00pm 28.9 ENE 5 6 1008.4 - 0.0 - - 10 - - - -
24/07:30pm 29.4 ENE 5 7 1008.1 - 0.0 - - 10 - - - -
24/07:00pm 29.4 NE 7 11 1007.5 - 0.0 - - 10 - - - -
24/06:30pm 30.0 NE 8 11 1006.8 - 0.0 - - 10 - - - -
24/06:00pm 30.9 ENE 10 14 1006.6 - 0.0 - - 10 - - - -
24/05:30pm 31.7 NE 9 14 1006.3 - 0.0 - - 10 - - - -
24/05:00pm 32.3 NNE 11 15 1006.5 - 0.0 - Partly cloudy 10 - - - -
24/04:30pm 33.0 NNE 9 11 1006.4 - 0.0 - Partly cloudy 10 - - - -
24/04:00pm 32.4 NNE 8 11 1006.6 - 0.0 - Partly cloudy 10 - - - -
24/03:30pm 32.3 N 9 13 1006.6 - 0.0 - Partly cloudy 10 - - - -
24/03:00pm 32.5 NE 10 14 1006.5 - 0.0 - Cloudy 10 - - - -
24/02:30pm 33.0 N 11 15 1006.8 - 0.0 - Cloudy 10 - - - -
24/02:00pm 32.5 N 10 15 1007.3 - 0.0 - Partly cloudy 10 - - - -
24/01:30pm 32.7 N 9 16 1007.9 - 0.0 - Partly cloudy 10 - - - -
24/01:00pm 32.8 N 10 16 1008.3 - 0.0 - Partly cloudy 10 - - - -
24/12:30pm 33.3 N 10 15 1008.9 - 0.0 - Partly cloudy 10 - - - -
24/12:00pm 33.3 NNE 10 13 1009.7 - 0.0 - Partly cloudy 10 - - - -
24/11:30am 33.1 NNE 10 15 1010.2 - 0.0 - Partly cloudy 10 - - - -
24/11:00am 32.2 N 9 14 1010.4 - 0.0 - Partly cloudy 10 - - - -
24/10:30am 32.2 NNE 9 13 1010.7 - 0.0 - Partly cloudy 10 - - - -
24/10:00am 32.0 N 7 12 1010.9 - 0.0 - Partly cloudy 10 - - - -
24/09:30am 31.1 N 9 11 1011.0 - 0.0 - Partly cloudy 10 - - - -
24/09:00am 30.7 NNE 10 12 1010.9 - 0.0 - Mostly clear - - - - -
24/08:30am 30.0 NNE 10 16 1010.6 - 0.0 - Partly cloudy - - - - -
24/08:00am 29.8 NNE 9 13 1010.5 - 0.0 - - - - - - -
24/07:30am 29.0 N 9 11 1010.2 - 0.0 - - - - - - -
24/07:00am 28.1 NNE 6 9 1009.8 - 0.0 - - - - - - -
24/06:30am 27.2 NE 4 7 1009.4 - 0.0 - - - - - - -
24/06:00am 27.1 N 5 7 1008.8 - 0.0 - - - - - - -
24/05:30am 27.1 NNE 6 9 1008.6 - 0.0 - - - - - - -
24/05:00am 26.4 NE 4 5 1008.4 - 0.0 - - - - - - -
24/04:30am 26.4 NE 3 3 1008.2 - 0.0 - - - - - - -
24/04:00am 26.7 NNE 2 3 1008.2 - 0.0 - Partly cloudy - - - - -
24/03:30am 27.0 N 3 5 1008.2 - 0.0 - - - - - - -
24/03:00am 27.3 N 4 6 1008.2 - 0.0 - - - - - - -
24/02:30am 27.6 N 4 6 1008.4 - 0.0 - - 10 - - - -
24/02:00am 27.3 N 3 5 1008.4 - 0.0 - - 10 - - - -
24/01:30am 27.1 NE 3 4 1008.6 - 0.0 - - 10 - - - -
24/01:00am 27.4 NE 5 6 1008.7 - 0.0 - - 10 - - - -
24/12:30am 27.5 NE 5 6 1009.2 - 0.0 - - 10 - - - -
24/12:00am 27.7 NE 5 7 1009.6 - 0.0 - - 10 - - - -
 
Date/Time
CST
Temp

°C
Wind Pressure Rain
since 9am
mm
Weather Cloud Vis
km
Sea
Height
m
Swell
Dir
 
Speed
knots
Gust
knots
hPa Trend Height
m
Period
s
Dir
23/11:30pm 27.8 NNE 5 7 1010.0 - 0.0 - - 10 - - - -
23/11:00pm 27.9 NE 5 8 1010.3 - 0.0 - - 10 - - - -
23/10:30pm 28.1 ENE 5 9 1010.5 - 0.0 - - 10 - - - -
23/10:00pm 28.1 NE 5 7 1010.4 - 0.0 - - 10 - - - -
23/09:30pm 28.3 NE 5 8 1010.0 - 0.0 - - 10 - - - -
23/09:00pm 28.5 NE 5 8 1009.5 - 0.0 - - 10 - - - -
23/08:30pm 28.7 NE 6 8 1009.1 - 0.0 - - 10 - - - -
23/08:00pm 29.0 ENE 6 8 1009.0 - 0.0 - - 10 - - - -
23/07:30pm 29.4 ENE 6 8 1008.5 - 0.0 - - 10 - - - -
23/07:00pm 30.2 ENE 6 8 1008.4 - 0.0 - - 10 - - - -
23/06:30pm 30.9 NE 7 10 1008.3 - 0.0 - - 10 - - - -
23/06:00pm 31.8 ENE 7 10 1008.2 - 0.0 - - 10 - - - -
23/05:30pm 32.4 NE 8 12 1007.8 - 0.0 - - 10 - - - -
23/05:00pm 33.8 ENE 9 12 1007.9 - 0.0 - - 10 - - - -
23/04:30pm 33.9 NE 9 13 1007.7 - 0.0 - - 10 - - - -
23/04:00pm 33.9 NNE 10 16 1008.0 - 0.0 - - 10 - - - -
23/03:30pm 34.4 NE 10 13 1008.2 - 0.0 - - 10 - - - -
23/03:00pm 35.0 ENE 9 11 1008.6 - 0.0 - - 10 - - - -
23/02:30pm 34.7 NNE 11 15 1008.9 - 0.0 - - 10 - - - -
23/02:00pm 34.4 NNE 11 17 1009.0 - 0.0 - - 10 - - - -
23/01:30pm 35.4 NNE 9 16 1009.3 - 0.0 - - 10 - - - -
23/01:00pm 35.2 NNE 10 16 1009.6 - 0.0 - - 10 - - - -
23/12:30pm 35.8 N 10 15 1009.8 - 0.0 - - 10 - - - -
23/12:00pm 35.0 NNE 11 19 1010.2 - 0.0 - - 10 - - - -
23/11:30am 34.8 NNE 9 14 1010.7 - 0.0 - - 10 - - - -
23/11:00am 33.7 N 6 13 1011.1 - 0.0 - - 10 - - - -
23/10:30am 32.8 NNE 7 10 1011.5 - 0.0 - Partly cloudy 10 - - - -
23/10:00am 32.6 NW 6 11 1012.0 - 0.0 - Partly cloudy 10 - - - -
23/09:30am 31.8 N 5 9 1012.2 - 0.0 - - 10 - - - -
23/09:00am 30.7 N 4 7 1012.2 - 0.0 - - - - - - -
23/08:30am 30.1 ESE 3 6 1012.3 - 0.0 - Partly cloudy - - - - -
23/08:00am 29.1 ENE 5 7 1012.2 - 0.0 - Partly cloudy - - - - -
23/07:30am 28.4 E 3 4 1012.1 - 0.0 - - - - - - -
23/07:00am 25.8 E 5 6 1011.7 - 0.0 - - - - - - -
23/06:30am 23.7 E 3 4 1010.9 - 0.0 - - - - - - -
23/06:00am 22.3 E 3 4 1010.3 - 0.0 - - - - - - -
23/05:30am 22.4 E 4 5 1009.9 - 0.0 - - - - - - -
23/05:00am 22.7 CALM 0 3 1009.5 - 0.0 - - - - - - -
23/04:30am 22.9 E 1 5 1009.5 - 0.0 - - - - - - -
23/04:00am 22.8 CALM 0 0 1009.3 - 0.0 - - - - - - -
23/03:30am 23.1 CALM 0 0 1009.2 - 0.0 - - - - - - -
23/03:00am 23.4 CALM 0 0 1009.2 - 0.0 - - - - - - -
23/02:30am 23.9 E 3 4 1009.1 - 0.0 - - 10 - - - -
23/02:00am 24.1 CALM 0 0 1009.2 - 0.0 - - 10 - - - -
23/01:30am 25.0 CALM 0 0 1009.5 - 0.0 - - 10 - - - -
23/01:00am 24.8 CALM 0 0 1009.9 - 0.0 - - 10 - - - -
23/12:30am 25.5 CALM 0 3 1010.2 - 0.0 - - 10 - - - -
23/12:00am 26.8 NE 3 5 1010.4 - 0.0 - - 10 - - - -
 
Date/Time
CST
Temp

°C
Wind Pressure Rain
since 9am
mm
Weather Cloud Vis
km
Sea
Height
m
Swell
Dir
 
Speed
knots
Gust
knots
hPa Trend Height
m
Period
s
Dir
22/11:30pm 27.1 ENE 5 7 1010.8 - 0.0 - - 10 - - - -
22/11:00pm 27.4 ENE 5 6 1010.8 - 0.0 - - 10 - - - -
22/10:30pm 27.6 ENE 7 9 1010.7 - 0.0 - - 10 - - - -
22/10:00pm 27.9 E 7 9 1010.8 - 0.0 - - 10 - - - -
22/09:30pm 28.0 ENE 5 7 1010.8 - 0.0 - - 10 - - - -
22/09:00pm 28.6 ENE 5 6 1010.8 - 0.0 - - 10 - - - -
22/08:30pm 28.8 E 3 4 1010.5 - 0.0 - - 10 - - - -
22/08:00pm 29.1 ESE 4 5 1010.0 - 0.0 - - 10 - - - -
22/07:30pm 29.9 ENE 6 10 1009.7 - 0.0 - - 10 - - - -
22/07:00pm 30.5 ENE 7 9 1009.5 - 0.0 - - 10 - - - -
22/06:30pm 31.4 ENE 7 10 1009.2 - 0.0 - - 10 - - - -
22/06:00pm 32.2 ENE 8 11 1008.9 - 0.0 - - 10 - - - -
22/05:30pm 32.5 NNE 9 14 1008.6 - 0.0 - - 10 - - - -
22/05:00pm 33.1 NNE 11 15 1008.4 - 0.0 - - 10 - - - -
22/04:30pm 34.1 NE 9 10 1008.4 - 0.0 - Partly cloudy 10 - - - -
22/04:00pm 34.2 NNE 9 14 1008.4 - 0.0 - Partly cloudy 10 - - - -
22/03:30pm 34.7 NNE 10 13 1008.7 - 0.0 - Partly cloudy 10 - - - -
22/03:00pm 34.5 NE 11 15 1008.8 - 0.0 - - 10 - - - -
22/02:30pm 34.7 N 10 17 1009.0 - 0.0 - Partly cloudy 10 - - - -
22/02:00pm 34.5 N 12 15 1009.3 - 0.0 - Partly cloudy 10 - - - -
22/01:30pm 34.9 N 9 14 1009.5 - 0.0 - Partly cloudy 10 - - - -
22/01:00pm 34.7 N 11 18 1009.8 - 0.0 - Partly cloudy 10 - - - -
22/12:30pm 34.8 N 10 13 1010.2 - 0.0 - Partly cloudy 10 - - - -
22/12:00pm 33.5 NNW 14 23 1010.8 - 0.0 - Mostly clear 10 - - - -
22/11:30am 34.1 WNW 13 15 1011.0 - 0.0 - Partly cloudy 10 - - - -
22/11:00am 33.9 NW 8 15 1011.6 - 0.0 - Partly cloudy 10 - - - -
22/10:30am 32.6 NW 7 12 1012.0 - 0.0 - Partly cloudy 10 - - - -
22/10:00am 33.2 NNE 7 12 1012.2 - 0.0 - Partly cloudy 10 - - - -
22/09:30am 32.9 NE 7 11 1012.1 - 0.0 - Partly cloudy 10 - - - -
22/09:00am 32.6 NNE 5 7 1012.4 - 0.0 - - 10 - - - -
22/08:30am 31.2 ENE 4 7 1012.6 - 0.0 - - 10 - - - -

Other Formats:

Comma delimited format used in spreadsheet applications
http://www.bom.gov.au/fwo/IDD60701/IDD60701.94153.axf

JavaScript Object Notation format (JSON) in row-major order
http://www.bom.gov.au/fwo/IDD60701/IDD60701.94153.json